Time;durP1;ratioP1;P1;durP2;ratioP2;P2;SDS_P1;SDS_P2;PMS_P1;PMS_P2;Temp;Humidity;BMP_temperature;BMP_pressure;BME280_temperature;BME280_humidity;BME280_pressure;Samples;Min_cycle;Max_cycle;Signal;HPM_P1;HPM_P2
2021/05/17 00:02:49;;;;;;;24.45;21.30;;;;;;;15.24;93.12;99228.84;5047072;28;20064;-74
2021/05/17 00:05:54;;;;;;;24.58;21.98;;;;;;;15.23;92.80;99224.47;5031298;28;20060;-74
2021/05/17 00:08:58;;;;;;;24.70;22.17;;;;;;;15.15;93.38;99229.16;5034164;28;20056;-74
2021/05/17 00:12:05;;;;;;;25.02;22.55;;;;;;;15.11;93.47;99225.16;5035840;28;20125;-74
2021/05/17 00:15:13;;;;;;;24.67;22.10;;;;;;;15.09;93.82;99216.38;5034122;28;20065;-74
2021/05/17 00:18:19;;;;;;;25.60;23.10;;;;;;;14.99;93.84;99195.91;5035187;28;20060;-74
2021/05/17 00:21:24;;;;;;;25.63;22.98;;;;;;;14.86;93.96;99201.16;5034603;28;20045;-74
2021/05/17 00:24:30;;;;;;;27.90;23.08;;;;;;;14.82;94.09;99199.88;5033449;28;20424;-74
2021/05/17 00:27:42;;;;;;;26.73;23.90;;;;;;;14.81;94.08;99209.00;5035438;28;20041;-74
2021/05/17 00:30:50;;;;;;;27.08;24.50;;;;;;;14.77;94.75;99204.16;5035761;28;20061;-74
2021/05/17 00:33:55;;;;;;;27.02;24.25;;;;;;;14.79;95.16;99215.63;5034097;28;20069;-74
2021/05/17 00:36:59;;;;;;;33.10;25.63;;;;;;;14.75;95.00;99209.78;5031063;28;20060;-74
2021/05/17 00:40:05;;;;;;;26.13;23.48;;;;;;;14.78;94.95;99209.41;5035320;28;20052;-74
2021/05/17 00:43:10;;;;;;;27.75;25.02;;;;;;;14.73;95.47;99221.78;5033018;28;20052;-74
2021/05/17 00:46:14;;;;;;;27.40;24.80;;;;;;;14.70;95.72;99227.56;5033800;28;20389;-73
2021/05/17 00:49:19;;;;;;;26.65;23.88;;;;;;;14.79;95.28;99231.81;5034160;28;20049;-74
2021/05/17 00:52:24;;;;;;;26.83;24.13;;;;;;;14.81;95.53;99233.31;5034732;28;20045;-74
2021/05/17 00:55:29;;;;;;;27.08;24.25;;;;;;;14.76;94.71;99234.94;5034772;28;20060;-74
2021/05/17 00:58:35;;;;;;;26.08;23.42;;;;;;;14.78;95.00;99233.72;5033407;28;20052;-74
2021/05/17 01:01:38;;;;;;;26.13;23.48;;;;;;;14.80;94.85;99263.22;5033826;28;20049;-74
2021/05/17 01:04:46;;;;;;;27.45;24.13;;;;;;;14.73;94.28;99260.47;5033576;28;20099;-74
2021/05/17 01:07:53;;;;;;;23.48;21.13;;;;;;;14.78;95.00;99282.34;5032657;28;20041;-74
2021/05/17 01:11:03;;;;;;;23.17;20.92;;;;;;;14.80;94.71;99276.75;5033667;28;20048;-74
2021/05/17 01:14:09;;;;;;;23.20;20.95;;;;;;;14.79;94.80;99267.78;5032409;28;20044;-74
2021/05/17 01:17:16;;;;;;;23.17;20.92;;;;;;;14.85;94.02;99261.66;5033379;28;20045;-74
2021/05/17 01:20:22;;;;;;;23.38;21.00;;;;;;;14.79;93.94;99256.97;5033110;28;20076;-74
2021/05/17 01:23:33;;;;;;;25.88;20.27;;;;;;;14.80;94.11;99272.19;5034549;28;20408;-74
2021/05/17 01:26:41;;;;;;;24.40;20.98;;;;;;;14.74;93.84;99264.81;5033785;28;20052;-74
2021/05/17 01:29:47;;;;;;;22.90;20.33;;;;;;;14.69;93.93;99256.44;5030773;28;20103;-74
2021/05/17 01:32:52;;;;;;;22.63;20.23;;;;;;;14.70;93.96;99250.03;5032421;28;20037;-73
2021/05/17 01:35:58;;;;;;;21.55;19.35;;;;;;;14.74;93.63;99245.91;5032232;28;20049;-74
2021/05/17 01:39:04;;;;;;;23.00;19.60;;;;;;;14.67;93.38;99253.09;5033658;28;20044;-74
2021/05/17 01:42:10;;;;;;;17.92;15.75;;;;;;;14.66;93.35;99254.13;5030664;28;20396;-74
2021/05/17 01:45:15;;;;;;;13.43;11.90;;;;;;;14.77;92.91;99252.78;5032545;28;20511;-76
2021/05/17 01:48:27;;;;;;;11.65;8.68;;;;;;;14.85;91.93;99269.75;5033856;28;20104;-73
2021/05/17 01:51:32;;;;;;;11.43;6.43;;;;;;;14.92;91.38;99265.28;5032103;28;20044;-74
2021/05/17 01:54:41;;;;;;;10.27;4.90;;;;;;;15.06;88.48;99279.75;5032590;28;20063;-74
2021/05/17 01:57:49;;;;;;;7.40;4.03;;;;;;;15.09;88.00;99286.66;5031521;28;20065;-74
2021/05/17 02:00:54;;;;;;;9.40;6.28;;;;;;;15.18;86.63;99299.91;5031418;28;20049;-74
2021/05/17 02:03:59;;;;;;;9.45;6.90;;;;;;;15.17;87.02;99292.81;5032746;28;20048;-74
2021/05/17 02:07:04;;;;;;;11.88;9.80;;;;;;;15.18;87.77;99315.28;5033301;28;20400;-74
2021/05/17 02:10:10;;;;;;;23.83;20.08;;;;;;;15.30;89.16;99343.50;5031110;28;20068;-74
2021/05/17 02:13:20;;;;;;;24.02;21.73;;;;;;;15.28;90.21;99353.66;5032166;28;20060;-74
2021/05/17 02:16:25;;;;;;;30.48;27.58;;;;;;;15.33;91.33;99345.84;5033241;28;20049;-74
2021/05/17 02:19:29;;;;;;;35.13;31.85;;;;;;;15.14;92.56;99341.00;5030316;28;20041;-74
2021/05/17 02:22:38;;;;;;;38.45;34.30;;;;;;;15.16;94.04;99345.19;5031314;28;20049;-74
2021/05/17 02:26:03;;;;;;;37.90;34.17;;;;;;;15.12;94.10;99341.19;5032051;28;20048;-73
2021/05/17 02:29:10;;;;;;;41.97;37.78;;;;;;;15.09;94.45;99332.59;5029601;28;20048;-74
2021/05/17 02:32:24;;;;;;;40.45;36.30;;;;;;;15.01;94.96;99354.34;5031691;28;20053;-74
2021/05/17 02:35:33;;;;;;;42.65;38.40;;;;;;;15.03;95.33;99344.19;5041868;28;20041;-74
2021/05/17 02:38:37;;;;;;;40.25;36.25;;;;;;;15.02;95.07;99329.81;5031220;28;20053;-74
2021/05/17 02:41:43;;;;;;;42.88;38.35;;;;;;;15.00;95.38;99350.81;5032028;28;20380;-74
2021/05/17 02:44:49;;;;;;;44.20;39.72;;;;;;;14.97;95.56;99337.66;5027261;28;20044;-74
2021/05/17 02:48:00;;;;;;;44.17;39.55;;;;;;;14.95;95.44;99347.81;5029473;28;20044;-74
2021/05/17 02:51:09;;;;;;;42.55;38.15;;;;;;;14.93;95.39;99345.31;5032699;28;20068;-74
2021/05/17 02:54:17;;;;;;;42.28;37.92;;;;;;;14.95;95.37;99335.16;5031281;28;20044;-74
2021/05/17 02:57:36;;;;;;;43.10;38.88;;;;;;;14.91;95.64;99322.22;5032307;28;20117;-73
2021/05/17 03:00:46;;;;;;;44.03;39.28;;;;;;;14.88;95.51;99317.19;5028781;28;20091;-74
2021/05/17 03:03:53;;;;;;;42.15;37.97;;;;;;;14.83;95.24;99314.19;5030765;28;20048;-74
2021/05/17 03:07:11;;;;;;;41.90;37.75;;;;;;;14.83;95.46;99325.84;5031022;28;20049;-74
2021/05/17 03:10:16;;;;;;;42.90;38.50;;;;;;;14.75;95.34;99334.03;5030121;28;20100;-74
2021/05/17 03:13:23;;;;;;;45.10;40.35;;;;;;;14.56;95.54;99326.50;5031992;28;20068;-74
2021/05/17 03:16:28;;;;;;;49.78;42.63;;;;;;;14.46;96.33;99333.19;5030209;28;20392;-73
2021/05/17 03:19:33;;;;;;;48.30;43.50;;;;;;;14.31;96.68;99334.00;5030333;28;20519;-74
2021/05/17 03:22:39;;;;;;;50.75;45.55;;;;;;;14.21;97.52;99330.69;5031706;28;20040;-74
2021/05/17 03:25:47;;;;;;;49.70;44.60;;;;;;;14.13;97.55;99329.91;5032296;28;20049;-74
2021/05/17 03:28:51;;;;;;;51.80;46.08;;;;;;;14.03;98.10;99326.63;5032628;28;20060;-73
2021/05/17 03:31:55;;;;;;;52.78;47.00;;;;;;;13.97;98.83;99335.44;5031066;28;20049;-74
2021/05/17 03:34:59;;;;;;;51.63;45.80;;;;;;;13.90;99.24;99331.81;5031500;28;20060;-74
2021/05/17 03:38:04;;;;;;;49.38;44.00;;;;;;;13.86;99.40;99335.88;5031162;28;20045;-74
2021/05/17 03:41:08;;;;;;;51.05;45.53;;;;;;;13.88;98.97;99328.44;5029409;28;20056;-74
2021/05/17 03:44:13;;;;;;;50.70;45.47;;;;;;;13.84;99.14;99319.88;5033422;28;20049;-74
2021/05/17 03:47:17;;;;;;;49.60;44.15;;;;;;;13.95;99.61;99324.00;5035129;28;20067;-74
2021/05/17 03:50:22;;;;;;;47.15;42.22;;;;;;;14.02;98.95;99314.97;5045992;28;20061;-74
2021/05/17 03:53:26;;;;;;;45.92;41.10;;;;;;;13.99;98.58;99326.16;5035874;28;20073;-74
2021/05/17 03:56:30;;;;;;;46.15;41.20;;;;;;;13.97;98.00;99319.25;5036162;28;20393;-74
2021/05/17 03:59:36;;;;;;;45.30;40.47;;;;;;;14.03;98.19;99321.22;5034596;28;20065;-74
2021/05/17 04:02:42;;;;;;;46.65;40.90;;;;;;;13.96;98.63;99333.75;5034979;28;20053;-74
2021/05/17 04:15:55;;;;;;;39.88;35.53;;;;;;;14.24;96.68;99338.44;5033888;28;20045;-74
2021/05/17 04:18:59;;;;;;;40.25;34.33;;;;;;;14.40;95.54;99329.34;5033721;28;20064;-74
2021/05/17 04:22:04;;;;;;;36.55;33.00;;;;;;;14.60;94.18;99325.09;5034928;28;20069;-74
2021/05/17 04:25:09;;;;;;;33.88;30.38;;;;;;;14.92;92.63;99329.28;5031938;28;20412;-74
2021/05/17 04:28:13;;;;;;;31.60;28.42;;;;;;;15.16;91.14;99326.25;5033520;28;20046;-74
2021/05/17 04:31:18;;;;;;;31.08;27.80;;;;;;;15.34;89.00;99328.56;5034039;28;20048;-74
2021/05/17 04:34:22;;;;;;;30.77;27.52;;;;;;;15.53;87.38;99319.88;5033758;28;20041;-74
2021/05/17 04:37:26;;;;;;;27.08;24.27;;;;;;;15.77;86.00;99327.63;5035216;28;20048;-74
2021/05/17 04:40:31;;;;;;;26.92;24.20;;;;;;;16.10;84.50;99320.66;5032848;28;20091;-74
2021/05/17 04:43:35;;;;;;;23.42;21.10;;;;;;;16.49;82.27;99324.72;5033173;28;20060;-74
2021/05/17 04:46:40;;;;;;;22.83;20.50;;;;;;;16.72;80.28;99319.88;5033638;28;20072;-74
2021/05/17 04:49:44;;;;;;;21.35;19.25;;;;;;;17.00;78.61;99315.25;5033513;28;20512;-74
2021/05/17 04:52:49;;;;;;;17.42;15.18;;;;;;;17.23;76.23;99318.47;5034582;28;20057;-74
2021/05/17 04:55:53;;;;;;;17.10;13.30;;;;;;;17.55;73.16;99315.09;5031178;28;20528;-74
2021/05/17 04:58:57;;;;;;;13.82;9.80;;;;;;;17.77;70.44;99313.06;5033400;28;20064;-74
2021/05/17 05:02:02;;;;;;;21.98;17.10;;;;;;;18.20;65.96;99321.66;5033779;28;20044;-75
2021/05/17 05:05:08;;;;;;;60.20;47.97;;;;;;;18.95;63.66;99325.78;5034209;28;20053;-75
2021/05/17 05:08:12;;;;;;;13.60;6.80;;;;;;;19.77;59.81;99320.44;5032249;28;20116;-74
2021/05/17 05:11:17;;;;;;;6.18;3.00;;;;;;;20.13;57.80;99320.59;5032962;28;20056;-74
2021/05/17 05:14:21;;;;;;;5.05;2.40;;;;;;;20.80;56.33;99325.28;5033674;28;20044;-74
2021/05/17 05:17:26;;;;;;;12.32;2.67;;;;;;;21.52;53.75;99331.84;5033567;28;20512;-74
2021/05/17 05:20:31;;;;;;;9.15;1.90;;;;;;;21.78;51.02;99335.03;5032061;28;20041;-74
2021/05/17 05:23:35;;;;;;;8.30;1.92;;;;;;;22.38;50.00;99338.56;5031995;28;20510;-74
2021/05/17 05:33:06;;;;;;;9.10;1.90;;;;;;;23.59;46.82;99354.25;5031745;28;20048;-75
2021/05/17 05:36:10;;;;;;;4.95;1.73;;;;;;;24.35;45.04;99365.63;5031432;28;20116;-75
2021/05/17 05:39:15;;;;;;;7.30;1.80;;;;;;;25.23;43.53;99372.28;5031322;28;20040;-74
2021/05/17 05:42:20;;;;;;;5.65;1.80;;;;;;;26.27;40.90;99371.94;5032295;28;20389;-75
2021/05/17 05:45:24;;;;;;;5.00;1.90;;;;;;;27.85;37.95;99374.72;5031072;28;20064;-75
2021/05/17 05:48:29;;;;;;;9.02;1.60;;;;;;;28.72;36.20;99396.75;5033580;28;20068;-76
2021/05/17 05:51:34;;;;;;;18.42;9.98;;;;;;;29.08;38.71;99400.31;5028721;28;20049;-76
2021/05/17 05:54:39;;;;;;;15.00;10.93;;;;;;;28.78;39.41;99392.88;5032238;28;20405;-76
2021/05/17 05:57:44;;;;;;;10.88;9.45;;;;;;;27.84;41.04;99412.50;5031257;28;20404;-77
2021/05/17 06:00:48;;;;;;;12.90;9.43;;;;;;;27.10;42.67;99414.53;5012383;28;20409;-78
2021/05/17 06:03:53;;;;;;;13.30;8.65;;;;;;;27.50;41.91;99409.31;5011978;28;20053;-76
2021/05/17 06:06:57;;;;;;;12.10;7.78;;;;;;;27.49;41.37;99424.19;5023335;28;20052;-72
2021/05/17 06:10:03;;;;;;;9.52;6.00;;;;;;;27.85;40.90;99421.63;5034423;28;20056;-75
2021/05/17 06:13:08;;;;;;;8.15;5.50;;;;;;;28.27;39.62;99425.06;5017889;28;20052;-75
2021/05/17 06:16:12;;;;;;;7.43;4.40;;;;;;;28.56;39.05;99428.19;5010517;28;20057;-73
2021/05/17 06:19:17;;;;;;;8.27;3.60;;;;;;;30.05;36.18;99433.84;5009673;28;20052;-74
2021/05/17 06:22:25;;;;;;;14.05;3.00;;;;;;;31.28;33.68;99438.31;5010523;28;20473;-74
2021/05/17 06:25:30;;;;;;;8.13;2.83;;;;;;;32.68;31.58;99448.84;5010373;28;20077;-76
2021/05/17 06:28:35;;;;;;;10.23;4.68;;;;;;;32.94;30.84;99454.81;5010873;28;20129;-75
2021/05/17 06:31:45;;;;;;;10.38;4.18;;;;;;;32.82;30.98;99462.78;5013493;28;20053;-74
2021/05/17 06:34:52;;;;;;;9.82;4.55;;;;;;;33.15;30.69;99470.91;5014574;28;20409;-77
2021/05/17 06:37:56;;;;;;;9.27;4.50;;;;;;;32.72;30.97;99466.56;5014432;28;20049;-77
2021/05/17 06:41:00;;;;;;;10.02;5.32;;;;;;;34.55;29.48;99479.63;5014383;28;20045;-76
2021/05/17 06:44:06;;;;;;;7.55;5.90;;;;;;;36.58;27.37;99470.38;5014036;28;20069;-76
2021/05/17 06:47:10;;;;;;;11.45;5.93;;;;;;;37.80;24.98;99483.59;5013786;28;20044;-76
2021/05/17 06:50:15;;;;;;;12.27;7.10;;;;;;;37.25;25.08;99485.53;5013281;28;20072;-74
2021/05/17 06:53:20;;;;;;;11.45;6.32;;;;;;;38.26;23.96;99490.34;5014751;28;20476;-75
2021/05/17 06:56:29;;;;;;;7.47;5.22;;;;;;;40.18;22.60;99492.47;5014443;28;20049;-77
2021/05/17 06:59:43;;;;;;;8.95;5.28;;;;;;;40.17;22.27;99493.63;5014165;28;20057;-77
2021/05/17 07:02:50;;;;;;;9.88;6.43;;;;;;;40.11;22.03;99492.25;5013588;28;20113;-74
2021/05/17 07:05:58;;;;;;;7.25;5.65;;;;;;;40.69;21.89;99501.38;5014388;28;20053;-77
2021/05/17 07:12:25;;;;;;;11.07;5.53;;;;;;;41.23;21.48;99505.47;5013293;28;20057;-77
2021/05/17 07:15:30;;;;;;;7.28;4.40;;;;;;;40.75;21.55;99505.56;5014250;28;20382;-74
2021/05/17 07:18:35;;;;;;;10.25;4.63;;;;;;;42.01;20.85;99513.28;5017176;28;20041;-76
2021/05/17 07:25:04;;;;;;;4.82;3.40;;;;;;;43.77;18.81;99517.38;5017882;28;20485;-77
2021/05/17 07:28:08;;;;;;;10.18;4.63;;;;;;;42.07;19.81;99523.91;5017822;28;20069;-75
2021/05/17 07:31:14;;;;;;;7.45;3.42;;;;;;;42.57;20.02;99513.91;5017751;28;20053;-76
2021/05/17 07:34:20;;;;;;;5.80;3.33;;;;;;;44.61;18.59;99522.91;5016862;28;20370;-76
2021/05/17 07:37:24;;;;;;;7.07;3.13;;;;;;;45.61;17.52;99514.56;5017694;28;20049;-76
2021/05/17 07:40:29;;;;;;;5.78;2.97;;;;;;;45.92;17.27;99516.91;5017592;28;20485;-73
2021/05/17 07:43:33;;;;;;;4.90;3.08;;;;;;;45.51;17.18;99518.88;5016130;28;20057;-72
2021/05/17 07:46:38;;;;;;;6.30;3.72;;;;;;;43.64;18.44;99523.53;5017445;28;20053;-76
2021/05/17 07:49:45;;;;;;;5.90;3.63;;;;;;;43.15;18.64;99523.34;5017266;28;20061;-73
2021/05/17 07:52:49;;;;;;;7.07;3.75;;;;;;;42.39;19.46;99523.94;5017260;28;20049;-76
2021/05/17 07:55:54;;;;;;;8.15;2.95;;;;;;;43.69;18.01;99520.41;5017262;28;20052;-73
2021/05/17 07:58:58;;;;;;;5.25;2.97;;;;;;;43.47;17.99;99524.00;5017292;28;20057;-76
2021/05/17 08:02:03;;;;;;;7.90;3.13;;;;;;;44.26;17.66;99519.47;5017023;28;20053;-74
2021/05/17 08:05:07;;;;;;;5.80;3.20;;;;;;;41.41;18.78;99523.72;5017084;28;20057;-72
2021/05/17 08:08:13;;;;;;;7.07;3.17;;;;;;;41.94;18.71;99518.75;5017105;28;20390;-73
2021/05/17 08:11:19;;;;;;;7.00;3.17;;;;;;;41.83;18.74;99512.81;5016942;28;20076;-73
2021/05/17 08:14:23;;;;;;;12.57;3.92;;;;;;;41.38;19.29;99518.78;5016997;28;20053;-73
2021/05/17 08:17:28;;;;;;;6.85;2.83;;;;;;;40.27;19.96;99521.28;5038902;28;20045;-72
2021/05/17 08:20:32;;;;;;;8.57;3.83;;;;;;;38.42;22.32;99521.50;5016782;28;20398;-76
2021/05/17 08:23:38;;;;;;;13.10;3.80;;;;;;;36.70;23.79;99526.47;5016759;28;20040;-76
2021/05/17 08:26:42;;;;;;;8.60;2.92;;;;;;;33.77;26.29;99524.41;5016657;28;20041;-74
2021/05/17 08:29:47;;;;;;;5.22;2.30;;;;;;;31.98;28.68;99520.03;5016498;28;20104;-76
2021/05/17 08:32:51;;;;;;;8.60;2.53;;;;;;;30.31;31.26;99525.94;5016457;28;20044;-73
2021/05/17 08:35:55;;;;;;;4.53;2.22;;;;;;;29.83;31.50;99530.22;5016571;28;20049;-73
2021/05/17 08:39:00;;;;;;;8.00;2.97;;;;;;;28.84;32.41;99538.19;5016099;28;20045;-74
2021/05/17 08:42:04;;;;;;;6.53;2.15;;;;;;;28.28;33.75;99542.69;5015893;28;20041;-74
2021/05/17 08:45:10;;;;;;;5.50;2.47;;;;;;;27.77;34.88;99546.25;5016027;28;20053;-74
2021/05/17 08:48:14;;;;;;;5.00;2.10;;;;;;;27.43;34.05;99540.22;5015365;28;20480;-75
2021/05/17 08:51:25;;;;;;;8.18;2.40;;;;;;;27.05;36.06;99557.78;5015890;28;20056;-73
2021/05/17 08:54:30;;;;;;;6.25;1.92;;;;;;;26.87;35.56;99558.97;5015596;28;20053;-75
2021/05/17 08:57:34;;;;;;;5.78;1.85;;;;;;;26.83;35.56;99551.47;5016129;28;20057;-74
2021/05/17 09:00:39;;;;;;;7.35;1.65;;;;;;;26.92;35.05;99561.78;5015990;28;20049;-74
2021/05/17 09:04:02;;;;;;;8.07;1.30;;;;;;;26.70;34.24;99571.13;5016182;28;20049;-75
2021/05/17 09:07:06;;;;;;;4.65;1.40;;;;;;;26.35;35.53;99569.63;5015269;28;20488;-74
2021/05/17 09:10:25;;;;;;;5.18;1.40;;;;;;;26.48;34.41;99573.91;5015807;28;20108;-74
2021/05/17 09:13:29;;;;;;;3.50;1.00;;;;;;;26.20;34.42;99572.16;5015843;28;20393;-74
2021/05/17 09:16:45;;;;;;;4.97;1.30;;;;;;;26.30;35.54;99575.06;5015470;28;20045;-73
2021/05/17 09:19:50;;;;;;;7.18;1.40;;;;;;;26.04;34.57;99585.94;5014950;28;20049;-74
2021/05/17 09:23:05;;;;;;;6.05;1.20;;;;;;;25.80;33.23;99586.16;5015715;28;20053;-76
2021/05/17 09:26:14;;;;;;;4.90;1.30;;;;;;;26.02;33.64;99588.97;5015653;28;20052;-74
2021/05/17 09:29:27;;;;;;;5.57;1.17;;;;;;;26.26;32.40;99593.19;5022179;28;20045;-75
2021/05/17 09:32:38;;;;;;;3.78;0.90;;;;;;;26.71;31.34;99581.91;5015553;28;20052;-74
2021/05/17 09:35:51;;;;;;;1.92;0.65;;;;;;;27.13;30.36;99591.19;5014530;28;20057;-74
2021/05/17 09:39:05;;;;;;;6.80;1.35;;;;;;;27.42;31.44;99604.72;5015424;28;20048;-74
2021/05/17 09:42:10;;;;;;;5.70;0.88;;;;;;;27.29;29.16;99600.44;5014356;28;20065;-74
2021/05/17 09:45:34;;;;;;;4.10;0.60;;;;;;;27.04;28.32;99609.28;5014483;28;20048;-74
2021/05/17 09:48:46;;;;;;;1.65;0.60;;;;;;;26.69;27.09;99610.78;5014193;28;20057;-74
2021/05/17 09:52:11;;;;;;;1.70;0.52;;;;;;;26.67;28.54;99605.53;5014837;28;20057;-75
2021/05/17 09:55:16;;;;;;;4.50;1.35;;;;;;;26.71;27.40;99611.34;5015114;28;20049;-74
2021/05/17 09:58:39;;;;;;;2.60;0.60;;;;;;;26.42;26.67;99611.53;5015121;28;20048;-73
2021/05/17 10:01:43;;;;;;;3.58;0.68;;;;;;;26.46;27.10;99612.72;5014843;28;20045;-73
2021/05/17 10:04:48;;;;;;;1.95;0.50;;;;;;;26.58;25.73;99614.50;5014093;28;20397;-73
2021/05/17 10:08:03;;;;;;;2.47;0.63;;;;;;;26.57;25.60;99618.31;5014815;28;20049;-74
2021/05/17 10:11:08;;;;;;;2.05;0.50;;;;;;;26.52;24.56;99599.81;5014673;28;20057;-73
2021/05/17 10:14:13;;;;;;;10.88;0.60;;;;;;;26.39;24.21;99617.56;5014723;28;20045;-74
2021/05/17 10:17:17;;;;;;;4.28;0.60;;;;;;;26.31;23.65;99620.75;5014747;28;20389;-74
2021/05/17 10:20:23;;;;;;;3.72;0.60;;;;;;;26.47;24.00;99622.63;5014671;28;20056;-74
2021/05/17 10:23:28;;;;;;;1.95;0.50;;;;;;;26.48;23.66;99621.53;5014597;28;20049;-75
2021/05/17 10:26:35;;;;;;;1.85;0.50;;;;;;;26.65;22.50;99621.47;5013701;28;20500;-75
2021/05/17 10:29:41;;;;;;;1.55;0.40;;;;;;;26.48;21.86;99616.03;5014480;28;20121;-73
2021/05/17 10:33:00;;;;;;;1.90;0.60;;;;;;;26.37;22.75;99639.00;5014208;28;20393;-74
2021/05/17 10:36:06;;;;;;;1.33;0.40;;;;;;;26.25;22.42;99631.94;5014496;28;20052;-73
2021/05/17 10:39:15;;;;;;;2.25;0.50;;;;;;;26.26;22.42;99633.63;5014443;28;20052;-74
2021/05/17 10:42:38;;;;;;;3.47;0.52;;;;;;;26.27;22.09;99638.03;5013286;28;20053;-74
2021/05/17 10:49:17;;;;;;;1.87;0.50;;;;;;;25.92;21.92;99630.06;5014063;28;20364;-74
2021/05/17 10:52:23;;;;;;;3.63;0.50;;;;;;;25.77;22.69;99629.81;5013818;28;20300;-74
2021/05/17 10:55:29;;;;;;;1.38;0.50;;;;;;;25.71;22.69;99622.56;5014244;28;20053;-74
2021/05/17 11:02:29;;;;;;;3.03;0.90;;;;;;;25.95;20.92;99613.03;4992657;28;20049;-74
2021/05/17 11:05:35;;;;;;;3.47;0.50;;;;;;;25.95;22.08;99626.78;4992574;28;20069;-74
2021/05/17 11:08:48;;;;;;;3.65;0.50;;;;;;;25.84;23.25;99619.47;4992519;28;20063;-74
2021/05/17 11:11:53;;;;;;;2.47;0.60;;;;;;;25.82;23.19;99624.41;4992447;28;20069;-74
2021/05/17 11:15:15;;;;;;;0.95;0.40;;;;;;;25.61;22.26;99616.91;4992485;28;20053;-74
2021/05/17 11:18:24;;;;;;;1.83;0.50;;;;;;;25.48;22.28;99625.50;4992486;28;20045;-74
2021/05/17 11:21:28;;;;;;;1.83;0.45;;;;;;;25.44;22.37;99621.53;4992150;28;20111;-73
2021/05/17 11:24:37;;;;;;;3.78;0.70;;;;;;;25.37;22.52;99623.59;4992385;28;20085;-74
2021/05/17 11:27:48;;;;;;;0.90;0.40;;;;;;;25.30;22.65;99631.19;4992322;28;20050;-74
2021/05/17 11:31:03;;;;;;;1.00;0.50;;;;;;;25.41;22.64;99627.50;4992222;28;20065;-74
2021/05/17 11:34:16;;;;;;;5.15;1.35;;;;;;;25.41;23.09;99628.34;4992250;28;20049;-74
2021/05/17 11:37:21;;;;;;;3.15;0.60;;;;;;;25.42;24.02;99629.19;4997306;28;20053;-74
2021/05/17 11:40:28;;;;;;;5.60;0.50;;;;;;;25.35;22.02;99625.78;5013865;28;20049;-74
2021/05/17 11:43:42;;;;;;;4.50;0.60;;;;;;;25.20;22.41;99616.19;5013135;28;20061;-74
2021/05/17 11:46:59;;;;;;;3.90;0.60;;;;;;;25.05;22.08;99613.16;5013708;28;20041;-73
2021/05/17 11:50:05;;;;;;;5.30;0.52;;;;;;;24.98;23.96;99615.22;5012373;28;20068;-73
2021/05/17 11:53:14;;;;;;;2.55;0.38;;;;;;;25.03;21.92;99607.09;5013458;28;20076;-74
2021/05/17 11:56:19;;;;;;;4.32;0.50;;;;;;;25.00;22.88;99606.72;5013698;28;20096;-74
2021/05/17 11:59:26;;;;;;;1.77;0.57;;;;;;;25.05;23.63;99613.16;5013683;28;20048;-73
2021/05/17 12:02:30;;;;;;;2.88;0.40;;;;;;;25.09;22.42;99611.56;5013651;28;20060;-74
2021/05/17 12:05:36;;;;;;;1.92;0.70;;;;;;;25.12;22.64;99605.59;5016103;28;20053;-73
2021/05/17 12:08:40;;;;;;;1.80;0.40;;;;;;;25.12;23.75;99602.00;5017134;28;20378;-74
2021/05/17 12:11:49;;;;;;;3.10;0.73;;;;;;;25.19;22.77;99599.94;5016153;28;20061;-75
2021/05/17 12:15:03;;;;;;;1.95;0.63;;;;;;;25.10;23.04;99607.75;5017048;28;20056;-75
2021/05/17 12:18:11;;;;;;;2.10;0.40;;;;;;;25.19;23.26;99614.50;5016990;28;20485;-74
2021/05/17 12:21:15;;;;;;;0.98;0.40;;;;;;;25.16;22.23;99612.25;5016834;28;20060;-74
2021/05/17 12:24:28;;;;;;;3.35;0.50;;;;;;;25.04;21.04;99616.13;5004825;28;20397;-75
2021/05/17 12:27:34;;;;;;;1.52;0.50;;;;;;;24.94;22.47;99608.53;5016818;28;20057;-75
2021/05/17 12:30:39;;;;;;;3.13;0.80;;;;;;;24.92;22.00;99604.38;4993233;28;20057;-74
2021/05/17 12:33:43;;;;;;;1.48;0.65;;;;;;;24.88;21.56;99615.03;5016075;28;20045;-75
2021/05/17 12:36:51;;;;;;;3.00;0.80;;;;;;;24.94;20.62;99610.44;5016313;28;20496;-75
2021/05/17 12:40:41;;;;;;;1.58;0.60;;;;;;;24.91;21.47;99608.22;5015736;28;20061;-76
2021/05/17 12:43:46;;;;;;;2.63;0.45;;;;;;;24.86;22.14;99608.13;5029855;28;20053;-75
2021/05/17 12:47:09;;;;;;;1.67;0.60;;;;;;;24.88;22.92;99611.44;5016419;28;20148;-75
2021/05/17 12:50:20;;;;;;;0.60;0.25;;;;;;;24.84;21.98;99613.84;5016317;28;20054;-76
2021/05/17 12:53:28;;;;;;;1.25;0.30;;;;;;;24.84;21.33;99619.31;5016207;28;20057;-74
2021/05/17 12:56:35;;;;;;;1.65;0.40;;;;;;;24.83;22.22;99625.91;5016202;28;20053;-74
2021/05/17 12:59:46;;;;;;;1.27;0.43;;;;;;;24.80;22.32;99600.84;5016106;28;20050;-75
2021/05/17 13:03:03;;;;;;;2.00;0.68;;;;;;;24.77;23.24;99613.16;5016082;28;20053;-74
2021/05/17 13:06:21;;;;;;;2.58;0.50;;;;;;;24.73;23.23;99622.09;5015764;28;20049;-75
2021/05/17 13:09:25;;;;;;;3.10;0.68;;;;;;;24.76;23.22;99608.72;5015464;28;20061;-75
2021/05/17 13:12:53;;;;;;;1.70;0.50;;;;;;;24.76;23.07;99618.88;5015510;28;20045;-75
2021/05/17 13:16:02;;;;;;;0.65;0.40;;;;;;;24.57;22.23;99618.19;5015472;28;20057;-74
2021/05/17 13:32:36;;;;;;;3.83;0.50;;;;;;;24.59;23.98;99624.25;5015240;28;19921;-75
2021/05/17 13:35:40;;;;;;;1.42;0.40;;;;;;;24.65;23.78;99631.53;5015051;28;20056;-76
2021/05/17 13:38:49;;;;;;;0.93;0.32;;;;;;;24.81;21.99;99622.59;5014805;28;20041;-75
2021/05/17 13:41:53;;;;;;;3.42;1.25;;;;;;;24.69;22.90;99621.72;5013558;28;20068;-75
2021/05/17 13:44:58;;;;;;;3.78;0.45;;;;;;;24.76;22.29;99611.47;5015000;28;20512;-75
2021/05/17 13:48:03;;;;;;;1.45;0.40;;;;;;;24.74;22.87;99616.34;5015200;28;20228;-75
2021/05/17 13:51:07;;;;;;;4.72;0.50;;;;;;;24.69;22.40;99615.44;5014522;28;20049;-74
2021/05/17 13:54:12;;;;;;;1.88;0.77;;;;;;;24.78;22.63;99624.97;5014670;28;20496;-74
2021/05/17 13:57:18;;;;;;;2.83;0.60;;;;;;;24.75;21.42;99628.16;5014542;28;20040;-75
2021/05/17 14:00:24;;;;;;;1.95;0.93;;;;;;;24.75;22.15;99623.50;5014668;28;20113;-74
2021/05/17 14:03:29;;;;;;;2.95;0.63;;;;;;;24.66;21.86;99621.41;5014336;28;20056;-75
2021/05/17 14:06:33;;;;;;;2.80;0.47;;;;;;;24.46;22.33;99624.56;5014526;28;20057;-74
2021/05/17 14:09:37;;;;;;;0.98;0.30;;;;;;;24.52;22.87;99631.81;5002304;28;20049;-74
2021/05/17 14:12:42;;;;;;;4.25;0.70;;;;;;;24.59;21.92;99635.25;5014484;28;20500;-74
2021/05/17 14:15:47;;;;;;;1.77;0.63;;;;;;;24.73;21.66;99639.41;5014214;28;20056;-75
2021/05/17 14:18:52;;;;;;;4.43;0.47;;;;;;;24.73;21.51;99647.63;5014248;28;20072;-74
2021/05/17 14:21:58;;;;;;;2.35;0.40;;;;;;;24.83;21.18;99650.63;5013634;28;20049;-74
2021/05/17 14:25:04;;;;;;;1.63;0.40;;;;;;;24.81;21.38;99641.81;5013116;28;20056;-74
2021/05/17 14:28:09;;;;;;;3.72;0.50;;;;;;;24.76;20.83;99647.16;5014452;28;20052;-75
2021/05/17 14:31:18;;;;;;;1.95;0.50;;;;;;;24.77;21.23;99646.09;5013744;28;20384;-74
2021/05/17 14:34:22;;;;;;;1.23;0.50;;;;;;;24.80;20.48;99642.88;5014199;28;20064;-74
2021/05/17 14:37:27;;;;;;;8.98;0.80;;;;;;;24.94;20.84;99641.50;5014226;28;20056;-74
2021/05/17 14:40:31;;;;;;;4.45;0.68;;;;;;;24.98;21.32;99648.19;5013831;28;20483;-74
2021/05/17 14:43:36;;;;;;;1.50;0.47;;;;;;;24.92;20.84;99648.31;5013478;28;20061;-74
2021/05/17 14:46:41;;;;;;;1.50;0.50;;;;;;;25.04;21.28;99649.94;5013881;28;20508;-74
2021/05/17 14:49:46;;;;;;;1.20;0.40;;;;;;;25.03;20.90;99647.44;5012861;28;20177;-75
2021/05/17 14:52:51;;;;;;;4.13;0.50;;;;;;;25.03;21.89;99653.78;5035637;28;20057;-74
2021/05/17 14:55:55;;;;;;;3.30;0.50;;;;;;;25.09;20.44;99666.50;5013045;28;20041;-74
2021/05/17 14:58:59;;;;;;;2.47;0.50;;;;;;;25.02;20.95;99668.56;5013921;28;20045;-74
2021/05/17 15:02:04;;;;;;;2.40;0.50;;;;;;;25.04;20.25;99671.91;5013867;28;20049;-74
2021/05/17 15:05:09;;;;;;;2.95;0.50;;;;;;;25.09;19.58;99676.66;5013343;28;20497;-75
2021/05/17 15:08:13;;;;;;;2.05;0.55;;;;;;;25.06;19.96;99667.00;5013730;28;20049;-75
2021/05/17 15:11:18;;;;;;;4.20;0.52;;;;;;;24.98;20.55;99681.13;5013717;28;20497;-75
2021/05/17 15:14:22;;;;;;;3.17;0.68;;;;;;;24.92;20.95;99684.84;5013630;28;20053;-75
2021/05/17 15:17:27;;;;;;;3.15;0.60;;;;;;;24.98;21.58;99694.03;5013670;28;20049;-75